createdAt,value
2023-03-21T00:01:38.980Z,32.24
2023-03-21T00:04:06.869Z,33.16
2023-03-21T00:06:34.534Z,34.56
2023-03-21T00:09:03.853Z,32.35
2023-03-21T00:11:31.495Z,33.43
2023-03-21T00:14:02.376Z,32.43
2023-03-21T00:16:32.391Z,31.58
2023-03-21T00:19:06.291Z,31.28
2023-03-21T00:21:55.554Z,31.73
2023-03-21T00:24:27.237Z,32.27
2023-03-21T00:27:03.363Z,32.58
2023-03-21T00:29:38.274Z,32.37
2023-03-21T00:32:06.108Z,33.05
2023-03-21T00:34:43.446Z,32.09
2023-03-21T00:37:21.405Z,31.81
2023-03-21T00:39:50.424Z,32.03
2023-03-21T00:42:19.868Z,32.32
2023-03-21T00:44:47.679Z,32.94
2023-03-21T00:47:15.570Z,33.28
2023-03-21T00:49:43.212Z,32.46
2023-03-21T00:52:27.564Z,32.07
2023-03-21T00:55:01.496Z,32.93
2023-03-21T00:57:38.643Z,32.56
2023-03-21T01:00:10.042Z,32.90
2023-03-21T01:02:37.942Z,31.61
2023-03-21T01:05:05.974Z,31.40
2023-03-21T01:07:33.609Z,31.95
2023-03-21T01:10:02.598Z,32.24
2023-03-21T01:12:30.190Z,33.25
2023-03-21T01:14:57.906Z,32.65
2023-03-21T01:17:27.082Z,32.02
2023-03-21T01:19:55.317Z,32.12
2023-03-21T01:22:22.903Z,31.60
2023-03-21T01:24:55.472Z,31.75
2023-03-21T01:27:29.569Z,31.89
2023-03-21T01:29:57.804Z,31.45
2023-03-21T01:32:26.278Z,31.86
2023-03-21T01:34:54.078Z,32.16
2023-03-21T01:37:26.206Z,33.37
2023-03-21T01:39:53.856Z,32.70
2023-03-21T01:42:21.509Z,32.57
2023-03-21T01:44:55.276Z,32.87
2023-03-21T01:47:23.207Z,33.62
2023-03-21T01:50:03.431Z,33.47
2023-03-21T01:52:50.017Z,37.67
2023-03-21T01:55:24.974Z,35.50
2023-03-21T01:58:05.880Z,35.93
2023-03-21T02:00:49.956Z,36.01
2023-03-21T02:03:35.762Z,34.29
2023-03-21T02:06:30.452Z,34.87
2023-03-21T02:11:33.221Z,36.00
2023-03-21T02:14:06.632Z,37.53
2023-03-21T02:16:53.824Z,36.38
2023-03-21T02:19:37.325Z,37.55
2023-03-21T02:22:33.643Z,37.36
2023-03-21T02:25:22.401Z,36.64
2023-03-21T02:27:51.678Z,38.35
2023-03-21T02:30:49.480Z,36.85
2023-03-21T02:33:24.307Z,37.11
2023-03-21T02:35:58.602Z,37.75
2023-03-21T02:38:31.675Z,38.70
2023-03-21T02:41:03.447Z,38.04
2023-03-21T02:43:32.266Z,38.19
2023-03-21T02:46:02.756Z,38.08
2023-03-21T02:48:41.102Z,37.86
2023-03-21T02:51:17.359Z,37.38
2023-03-21T02:53:51.739Z,37.01
2023-03-21T02:56:23.360Z,36.08
2023-03-21T02:58:55.219Z,36.40
2023-03-21T03:01:25.944Z,37.92
2023-03-21T03:03:53.914Z,37.43
2023-03-21T03:06:22.638Z,36.92
2023-03-21T03:09:02.897Z,37.63
2023-03-21T03:11:32.484Z,36.08
2023-03-21T03:14:38.352Z,36.73
2023-03-21T03:17:08.358Z,38.63
2023-03-21T03:19:44.687Z,36.20
2023-03-21T03:22:18.892Z,36.26
2023-03-21T03:24:48.231Z,39.36
2023-03-21T03:27:17.675Z,39.57
2023-03-21T03:29:46.322Z,38.13
2023-03-21T03:32:18.007Z,37.11
2023-03-21T03:34:49.641Z,39.08
2023-03-21T03:37:21.495Z,37.54
2023-03-21T03:39:52.251Z,37.36
2023-03-21T03:42:28.160Z,37.19
2023-03-21T03:45:05.596Z,37.57
2023-03-21T03:47:37.980Z,37.79
2023-03-21T03:50:10.748Z,37.17
2023-03-21T03:52:50.042Z,37.36
2023-03-21T03:55:26.588Z,38.51
2023-03-21T03:57:56.562Z,38.65
2023-03-21T04:00:25.397Z,37.69
2023-03-21T04:02:53.105Z,37.55
2023-03-21T04:05:24.420Z,39.21
2023-03-21T04:07:52.506Z,38.46
2023-03-21T04:10:31.290Z,38.14
2023-03-21T04:12:58.913Z,39.69
2023-03-21T04:15:46.808Z,38.46
2023-03-21T04:18:17.072Z,36.94
2023-03-21T04:20:45.936Z,37.52
2023-03-21T04:23:14.089Z,36.53
2023-03-21T04:25:56.247Z,36.61
2023-03-21T04:28:27.881Z,37.76
2023-03-21T04:31:11.071Z,42.03
2023-03-21T04:33:50.427Z,40.01
2023-03-21T04:36:27.318Z,39.89
2023-03-21T04:39:00.731Z,38.43
2023-03-21T04:41:30.346Z,43.26
2023-03-21T04:43:58.448Z,40.13
2023-03-21T04:46:26.540Z,42.27
2023-03-21T04:48:54.208Z,41.30
2023-03-21T04:51:21.829Z,41.28
2023-03-21T04:53:52.406Z,40.29
2023-03-21T04:56:20.384Z,39.28
2023-03-21T04:58:49.463Z,37.92
2023-03-21T05:01:20.736Z,39.41
2023-03-21T05:03:48.997Z,38.43
2023-03-21T05:06:16.660Z,40.00
2023-03-21T05:08:44.390Z,41.17
2023-03-21T05:11:13.156Z,39.30
2023-03-21T05:13:41.445Z,40.97
2023-03-21T05:16:10.947Z,39.01
2023-03-21T05:18:39.263Z,40.12
2023-03-21T05:21:18.298Z,40.59
2023-03-21T05:23:54.118Z,42.36
2023-03-21T05:26:22.217Z,39.50
2023-03-21T05:29:05.536Z,40.48
2023-03-21T05:31:34.726Z,40.17
2023-03-21T05:34:07.899Z,38.73
2023-03-21T05:36:36.756Z,41.41
2023-03-21T05:39:08.054Z,40.00
2023-03-21T05:41:40.084Z,41.59
2023-03-21T05:44:08.095Z,42.88
2023-03-21T05:46:38.554Z,42.85
2023-03-21T05:49:06.976Z,41.81
2023-03-21T05:51:35.018Z,39.56
2023-03-21T05:54:02.684Z,40.11
2023-03-21T05:56:30.570Z,40.25
2023-03-21T05:59:03.343Z,41.54
2023-03-21T06:01:34.986Z,41.07
2023-03-21T06:04:15.691Z,39.85
2023-03-21T06:06:44.239Z,41.64
2023-03-21T06:09:11.942Z,39.35
2023-03-21T06:11:42.364Z,38.85
2023-03-21T06:14:28.397Z,40.34
2023-03-21T06:17:18.985Z,41.13
2023-03-21T06:19:56.488Z,39.73
2023-03-21T06:22:30.948Z,40.50
2023-03-21T06:24:59.015Z,40.81
2023-03-21T06:27:27.741Z,39.81
2023-03-21T06:29:57.976Z,41.61
2023-03-21T06:32:25.773Z,40.00
2023-03-21T06:34:59.585Z,41.50
2023-03-21T06:37:27.478Z,40.89
2023-03-21T06:39:55.832Z,40.02
2023-03-21T06:42:24.404Z,40.49
2023-03-21T06:44:53.830Z,42.51
2023-03-21T06:47:21.582Z,39.54
2023-03-21T06:49:50.522Z,40.51
2023-03-21T06:52:19.631Z,39.38
2023-03-21T06:54:47.357Z,42.82
2023-03-21T06:57:18.004Z,45.91
2023-03-21T06:59:46.241Z,42.07
2023-03-21T07:02:22.188Z,40.50
2023-03-21T07:05:19.275Z,39.39
2023-03-21T07:07:48.656Z,38.90
2023-03-21T07:10:16.306Z,41.30
2023-03-21T07:12:49.410Z,39.24
2023-03-21T07:15:21.442Z,41.11
2023-03-21T07:17:52.538Z,40.65
2023-03-21T07:20:20.911Z,39.26
2023-03-21T07:22:51.178Z,43.42
2023-03-21T07:25:20.189Z,46.71
2023-03-21T07:27:51.058Z,44.60
2023-03-21T07:30:20.189Z,41.48
2023-03-21T07:32:47.776Z,43.21
2023-03-21T07:35:17.294Z,42.09
2023-03-21T07:37:45.038Z,43.05
2023-03-21T07:40:17.782Z,40.61
2023-03-21T07:42:45.648Z,42.42
2023-03-21T07:45:16.587Z,42.47
2023-03-21T07:47:46.131Z,42.09
2023-03-21T07:50:13.910Z,42.18
2023-03-21T07:52:42.002Z,44.49
2023-03-21T07:55:10.465Z,44.73
2023-03-21T07:57:39.498Z,45.82
2023-03-21T08:00:07.875Z,46.25
2023-03-21T08:02:40.983Z,42.70
2023-03-21T08:05:11.683Z,40.84
2023-03-21T08:07:39.386Z,44.10
2023-03-21T08:10:07.750Z,48.24
2023-03-21T08:12:35.377Z,45.91
2023-03-21T08:15:04.536Z,42.42
2023-03-21T08:17:32.194Z,42.79
2023-03-21T08:19:59.854Z,42.37
2023-03-21T08:22:27.526Z,39.48
2023-03-21T08:24:55.635Z,40.33
2023-03-21T08:27:23.476Z,42.77
2023-03-21T08:29:51.141Z,42.43
2023-03-21T08:32:20.834Z,43.03
2023-03-21T08:34:48.438Z,43.99
2023-03-21T08:37:16.342Z,46.27
2023-03-21T08:39:44.019Z,48.86
2023-03-21T08:42:11.695Z,46.18
2023-03-21T08:44:41.433Z,45.92
2023-03-21T08:47:09.262Z,49.55
2023-03-21T08:49:38.366Z,46.48
2023-03-21T08:52:06.830Z,48.28
2023-03-21T08:54:34.524Z,45.88
2023-03-21T08:57:02.181Z,46.73
2023-03-21T08:59:29.772Z,43.09
2023-03-21T09:01:57.494Z,44.74
2023-03-21T09:04:26.025Z,44.46
2023-03-21T09:06:56.295Z,48.27
2023-03-21T09:09:23.959Z,46.12
2023-03-21T09:11:52.581Z,45.03
2023-03-21T09:14:21.836Z,44.63
2023-03-21T09:16:52.106Z,44.91
2023-03-21T09:19:19.777Z,40.95
2023-03-21T09:21:47.783Z,40.79
2023-03-21T09:24:18.094Z,41.73
2023-03-21T09:26:46.441Z,48.19
2023-03-21T09:29:15.939Z,46.89
2023-03-21T09:31:44.088Z,44.67
2023-03-21T09:34:12.576Z,46.17
2023-03-21T09:36:42.187Z,42.86
2023-03-21T09:39:09.934Z,40.33
2023-03-21T09:41:45.210Z,41.82
2023-03-21T09:44:17.200Z,46.44
2023-03-21T09:46:45.996Z,43.03
2023-03-21T09:49:16.989Z,44.12
2023-03-21T09:51:46.179Z,43.22
2023-03-21T09:54:15.266Z,45.19
2023-03-21T09:56:44.727Z,45.78
2023-03-21T09:59:12.637Z,42.41
2023-03-21T10:01:45.370Z,41.02
2023-03-21T10:04:15.257Z,43.20
2023-03-21T10:06:45.203Z,41.10
2023-03-21T10:09:15.072Z,39.42
2023-03-21T10:11:44.838Z,37.07
2023-03-21T10:14:14.581Z,43.20
2023-03-21T10:16:42.832Z,41.25
2023-03-21T10:19:12.025Z,38.32
2023-03-21T10:21:59.598Z,38.01
2023-03-21T10:24:28.970Z,37.73
2023-03-21T10:26:58.063Z,40.12
2023-03-21T10:29:26.824Z,39.94
2023-03-21T10:31:54.592Z,44.65
2023-03-21T10:34:24.762Z,41.91
2023-03-21T10:36:52.357Z,40.96
2023-03-21T10:39:22.910Z,45.55
2023-03-21T10:45:29.215Z,44.34
2023-03-21T10:47:58.278Z,39.03
2023-03-21T10:50:28.058Z,40.54
2023-03-21T10:53:00.399Z,44.30
2023-03-21T10:55:29.110Z,40.61
2023-03-21T10:57:58.854Z,43.13
2023-03-21T11:00:27.289Z,39.25
2023-03-21T11:02:56.476Z,38.93
2023-03-21T11:05:25.256Z,40.16
2023-03-21T11:07:59.824Z,38.76
2023-03-21T11:10:29.457Z,44.10
2023-03-21T11:12:57.547Z,42.39
2023-03-21T11:15:30.149Z,38.97
2023-03-21T11:17:59.349Z,39.33
2023-03-21T11:20:27.026Z,38.41
2023-03-21T11:22:55.799Z,39.21
2023-03-21T11:25:24.136Z,38.51
2023-03-21T11:27:52.241Z,41.10
2023-03-21T11:30:22.060Z,38.22
2023-03-21T11:32:51.878Z,38.67
2023-03-21T11:35:22.030Z,37.27
2023-03-21T11:37:53.182Z,40.40
2023-03-21T11:40:21.797Z,39.66
2023-03-21T11:42:51.742Z,37.67
2023-03-21T11:45:20.333Z,38.80
2023-03-21T11:47:49.394Z,41.59
2023-03-21T11:50:22.177Z,40.81
2023-03-21T11:52:52.465Z,43.37
2023-03-21T11:55:23.967Z,39.76
2023-03-21T11:57:54.857Z,41.20
2023-03-21T12:00:26.123Z,41.93
2023-03-21T12:03:11.502Z,44.82
2023-03-21T12:05:41.792Z,45.08
2023-03-21T12:08:10.355Z,39.44
2023-03-21T12:10:40.639Z,41.57
2023-03-21T12:13:14.577Z,40.51
2023-03-21T12:15:43.686Z,37.86
2023-03-21T12:18:15.531Z,41.84
2023-03-21T12:20:44.811Z,38.92
2023-03-21T12:23:15.996Z,40.34
2023-03-21T12:25:44.626Z,42.52
2023-03-21T12:28:21.287Z,41.79
2023-03-21T12:30:55.920Z,42.19
2023-03-21T12:33:29.799Z,43.01
2023-03-21T12:36:08.084Z,45.11
2023-03-21T12:38:38.034Z,43.29
2023-03-21T12:41:12.753Z,41.39
2023-03-21T12:43:43.662Z,41.33
2023-03-21T12:46:12.541Z,39.72
2023-03-21T12:48:41.750Z,36.60
2023-03-21T12:51:11.503Z,40.49
2023-03-21T12:53:56.798Z,41.64
2023-03-21T12:56:25.581Z,38.27
2023-03-21T12:58:53.796Z,38.64
2023-03-21T13:01:22.048Z,36.14
2023-03-21T13:03:51.462Z,38.45
2023-03-21T13:06:20.758Z,36.58
2023-03-21T13:08:49.210Z,36.01
2023-03-21T13:11:17.946Z,36.67
2023-03-21T13:13:46.099Z,36.39
2023-03-21T13:16:14.072Z,37.40
2023-03-21T13:18:45.518Z,40.80
2023-03-21T13:21:14.959Z,40.92
2023-03-21T13:23:47.670Z,41.63
2023-03-21T13:26:16.021Z,39.60
2023-03-21T13:28:43.646Z,36.50
2023-03-21T13:31:18.856Z,37.65
2023-03-21T13:33:46.826Z,39.85
2023-03-21T13:36:15.105Z,37.16
2023-03-21T13:38:45.766Z,38.33
2023-03-21T13:41:14.202Z,37.84
2023-03-21T13:43:43.870Z,39.78
2023-03-21T13:46:12.099Z,39.30
2023-03-21T13:48:49.386Z,41.05
2023-03-21T13:51:39.515Z,42.64
2023-03-21T13:54:17.633Z,44.66
2023-03-21T13:56:49.749Z,39.95
2023-03-21T13:59:18.638Z,43.24
2023-03-21T14:01:59.179Z,43.83
2023-03-21T14:04:32.215Z,41.64
2023-03-21T14:07:11.211Z,40.90
2023-03-21T14:09:40.570Z,39.10
2023-03-21T14:12:08.815Z,40.91
2023-03-21T14:14:38.439Z,41.68
2023-03-21T14:17:12.431Z,39.52
2023-03-21T14:19:40.212Z,41.67
2023-03-21T14:22:10.683Z,36.21
2023-03-21T14:24:38.453Z,40.04
2023-03-21T14:27:09.639Z,40.28
2023-03-21T14:29:38.004Z,36.08
2023-03-21T14:32:05.917Z,41.77
2023-03-21T14:34:34.265Z,39.67
2023-03-21T14:37:01.891Z,41.44
2023-03-21T14:39:30.038Z,37.25
2023-03-21T14:41:58.319Z,38.26
2023-03-21T14:44:28.952Z,38.17
2023-03-21T14:47:01.299Z,38.34
2023-03-21T14:49:29.589Z,35.72
2023-03-21T14:51:58.321Z,37.95
2023-03-21T14:54:27.222Z,39.99
2023-03-21T14:56:56.461Z,36.86
2023-03-21T14:59:25.190Z,39.63
2023-03-21T15:01:54.551Z,42.16
2023-03-21T15:04:22.842Z,42.24
2023-03-21T15:06:51.731Z,39.66
2023-03-21T15:09:19.583Z,41.18
2023-03-21T15:11:50.920Z,40.14
2023-03-21T15:14:18.555Z,41.13
2023-03-21T15:16:46.222Z,37.21
2023-03-21T15:19:17.599Z,37.54
2023-03-21T15:21:45.940Z,43.20
2023-03-21T15:24:15.864Z,39.10
2023-03-21T15:26:45.082Z,38.80
2023-03-21T15:29:13.053Z,39.40
2023-03-21T15:31:40.985Z,39.12
2023-03-21T15:34:08.718Z,39.27
2023-03-21T15:36:38.666Z,45.13
2023-03-21T15:39:06.866Z,40.87
2023-03-21T15:41:34.524Z,40.82
2023-03-21T15:44:03.210Z,40.21
2023-03-21T15:46:34.735Z,38.23
2023-03-21T15:49:09.260Z,38.07
2023-03-21T15:51:38.279Z,37.78
2023-03-21T15:54:06.849Z,36.29
2023-03-21T15:56:36.263Z,36.87
2023-03-21T15:59:05.614Z,38.38
2023-03-21T16:01:38.788Z,40.88
2023-03-21T16:04:07.268Z,38.86
2023-03-21T16:06:35.182Z,38.00
2023-03-21T16:09:07.904Z,37.18
2023-03-21T16:11:39.411Z,39.14
2023-03-21T16:14:09.134Z,40.18
2023-03-21T16:16:36.753Z,41.29
2023-03-21T16:19:04.481Z,39.61
2023-03-21T16:21:34.102Z,38.85
2023-03-21T16:24:02.166Z,37.51
2023-03-21T16:26:32.168Z,39.74
2023-03-21T16:29:00.188Z,40.75
2023-03-21T16:31:28.513Z,38.55
2023-03-21T16:33:56.335Z,38.45
2023-03-21T16:36:24.695Z,39.76
2023-03-21T16:38:52.673Z,36.60
2023-03-21T16:41:20.803Z,39.07
2023-03-21T16:43:50.460Z,42.20
2023-03-21T16:46:18.637Z,41.73
2023-03-21T16:48:46.818Z,42.75
2023-03-21T16:51:14.897Z,43.35
2023-03-21T16:53:42.515Z,41.34
2023-03-21T16:56:12.050Z,43.12
2023-03-21T16:58:39.685Z,42.37
2023-03-21T17:01:09.812Z,42.62
2023-03-21T17:03:37.901Z,43.93
2023-03-21T17:06:06.058Z,44.69
2023-03-21T17:08:33.626Z,42.00
2023-03-21T17:11:03.409Z,45.69
2023-03-21T17:13:31.970Z,44.93
2023-03-21T17:15:59.598Z,44.18
2023-03-21T17:18:29.244Z,41.56
2023-03-21T17:20:56.884Z,43.87
2023-03-21T17:23:24.595Z,45.53
2023-03-21T17:25:52.243Z,44.72
2023-03-21T17:28:19.852Z,45.34
2023-03-21T17:30:47.546Z,44.00
2023-03-21T17:33:15.692Z,43.72
2023-03-21T17:35:44.696Z,45.73
2023-03-21T17:38:13.266Z,45.18
2023-03-21T17:40:41.209Z,46.16
2023-03-21T17:43:10.090Z,47.33
2023-03-21T17:45:37.708Z,46.32
2023-03-21T17:48:05.739Z,47.60
2023-03-21T17:50:36.867Z,44.91
2023-03-21T17:53:06.193Z,45.89
2023-03-21T17:55:36.956Z,43.77
2023-03-21T17:58:05.583Z,45.79
2023-03-21T18:00:33.187Z,45.93
2023-03-21T18:03:01.026Z,46.58
2023-03-21T18:05:28.706Z,45.21
2023-03-21T18:08:12.687Z,45.27
2023-03-21T18:10:42.653Z,46.83
2023-03-21T18:13:10.770Z,44.94
2023-03-21T18:15:44.196Z,43.95
2023-03-21T18:18:12.834Z,44.18
2023-03-21T18:20:51.693Z,44.23
2023-03-21T18:23:20.857Z,44.63
2023-03-21T18:25:50.054Z,44.33
2023-03-21T18:28:20.787Z,44.20
2023-03-21T18:31:07.662Z,44.17
2023-03-21T18:33:36.616Z,45.01
2023-03-21T18:36:07.605Z,43.80
2023-03-21T18:38:35.791Z,43.67
2023-03-21T18:41:04.819Z,43.60
2023-03-21T18:46:20.399Z,42.95
2023-03-21T18:48:49.217Z,44.97
2023-03-21T18:51:17.711Z,43.77
2023-03-21T18:53:45.752Z,42.92
2023-03-21T18:56:56.142Z,42.46
2023-03-21T18:59:02.909Z,43.52
2023-03-21T19:01:30.861Z,43.43
2023-03-21T19:04:20.441Z,41.84
2023-03-21T19:06:47.791Z,41.80
2023-03-21T19:09:16.016Z,42.89
2023-03-21T19:11:47.179Z,41.89
2023-03-21T19:14:15.528Z,43.27
2023-03-21T19:17:23.121Z,43.00
2023-03-21T19:19:31.085Z,39.66
2023-03-21T19:21:58.785Z,41.97
2023-03-21T19:24:28.906Z,43.45
2023-03-21T19:26:58.180Z,42.72
2023-03-21T19:29:26.116Z,43.61
2023-03-21T19:31:53.914Z,41.28
2023-03-21T19:34:21.710Z,41.00
2023-03-21T19:36:51.959Z,39.01
2023-03-21T19:39:22.234Z,38.39
2023-03-21T19:41:50.346Z,38.34
2023-03-21T19:44:20.911Z,37.83
2023-03-21T19:46:48.994Z,38.84
2023-03-21T19:49:20.174Z,40.21
2023-03-21T19:51:47.871Z,40.82
2023-03-21T19:54:17.298Z,42.22
2023-03-21T19:56:47.527Z,42.29
2023-03-21T19:59:15.856Z,41.06
2023-03-21T20:01:44.989Z,40.14
2023-03-21T20:04:13.133Z,40.40
2023-03-21T20:06:40.878Z,40.14
2023-03-21T20:11:57.735Z,40.39
2023-03-21T20:14:25.852Z,43.49
2023-03-21T20:16:57.343Z,42.14
2023-03-21T20:19:25.381Z,42.07
2023-03-21T20:21:58.810Z,45.57
2023-03-21T20:24:28.212Z,43.43
2023-03-21T20:26:57.358Z,42.32
2023-03-21T20:32:14.338Z,43.19
2023-03-21T20:34:44.285Z,44.09
2023-03-21T20:37:12.341Z,43.04
2023-03-21T20:39:39.982Z,44.10
2023-03-21T20:42:07.652Z,44.28
2023-03-21T20:44:52.322Z,44.68
2023-03-21T20:47:24.898Z,43.31
2023-03-21T20:49:52.521Z,45.36
2023-03-21T20:55:09.323Z,43.84
2023-03-21T20:57:38.758Z,43.88
2023-03-21T21:00:14.674Z,44.13
2023-03-21T21:02:44.509Z,43.25
2023-03-21T21:05:33.080Z,43.34
2023-03-21T21:08:01.870Z,45.43
2023-03-21T21:10:29.628Z,46.98
2023-03-21T21:12:57.281Z,45.88
2023-03-21T21:15:25.058Z,43.83
2023-03-21T21:18:06.710Z,45.17
2023-03-21T21:20:35.453Z,46.36
2023-03-21T21:23:03.123Z,44.76
2023-03-21T21:25:32.625Z,44.07
2023-03-21T21:28:01.554Z,44.05
2023-03-21T21:30:30.319Z,43.16
2023-03-21T21:33:00.698Z,43.45
2023-03-21T21:35:28.462Z,42.82
2023-03-21T21:37:56.167Z,42.81
2023-03-21T21:40:24.228Z,42.91
2023-03-21T21:42:51.862Z,43.83
2023-03-21T21:45:20.133Z,45.40
2023-03-21T21:47:51.481Z,45.65
2023-03-21T21:50:22.480Z,46.63
2023-03-21T21:52:54.169Z,46.04
2023-03-21T21:55:22.339Z,46.00
2023-03-21T21:57:52.795Z,45.23
2023-03-21T22:00:25.129Z,45.32
2023-03-21T22:02:53.080Z,45.95
2023-03-21T22:05:22.272Z,45.74
2023-03-21T22:07:50.324Z,43.35
2023-03-21T22:10:18.123Z,42.88
2023-03-21T22:12:46.080Z,44.41
2023-03-21T22:15:13.812Z,45.60
2023-03-21T22:17:41.665Z,44.35
2023-03-21T22:20:10.059Z,43.75
2023-03-21T22:22:39.223Z,43.61
2023-03-21T22:25:10.384Z,44.42
2023-03-21T22:27:38.141Z,43.28
2023-03-21T22:30:07.386Z,43.89
2023-03-21T22:32:35.256Z,44.91
2023-03-21T22:35:03.389Z,45.37
2023-03-21T22:37:31.333Z,45.26
2023-03-21T22:40:00.385Z,47.93
2023-03-21T22:42:28.047Z,47.34
2023-03-21T22:44:55.788Z,45.03
2023-03-21T22:47:23.473Z,45.81
2023-03-21T22:49:51.613Z,46.77
2023-03-21T22:52:19.234Z,47.32
2023-03-21T22:54:47.730Z,47.94
2023-03-21T22:57:16.989Z,46.15
2023-03-21T22:59:44.622Z,47.35
2023-03-21T23:02:12.242Z,50.91
2023-03-21T23:04:39.980Z,50.36
2023-03-21T23:07:07.740Z,49.66
2023-03-21T23:09:35.437Z,52.10
2023-03-21T23:12:03.029Z,51.76
2023-03-21T23:14:31.999Z,51.19
2023-03-21T23:17:02.672Z,47.56
2023-03-21T23:19:30.714Z,48.72
2023-03-21T23:21:58.553Z,52.48
2023-03-21T23:24:26.607Z,48.80
2023-03-21T23:26:54.217Z,45.74
2023-03-21T23:29:21.833Z,45.45
2023-03-21T23:31:50.858Z,48.52
2023-03-21T23:34:18.519Z,47.19
2023-03-21T23:36:46.153Z,49.23
2023-03-21T23:39:14.129Z,49.12
2023-03-21T23:41:42.711Z,46.14
2023-03-21T23:44:10.375Z,45.89
2023-03-21T23:46:38.022Z,47.89
2023-03-21T23:49:06.994Z,46.88
2023-03-21T23:51:34.567Z,45.50
2023-03-21T23:54:02.434Z,45.51
2023-03-21T23:56:30.221Z,45.45
2023-03-21T23:58:58.157Z,47.02
